Time;durP1;ratioP1;P1;durP2;ratioP2;P2;SDS_P1;SDS_P2;PMS_P1;PMS_P2;Temp;Humidity;BMP_temperature;BMP_pressure;BME280_temperature;BME280_humidity;BME280_pressure;Samples;Min_cycle;Max_cycle;Signal;HPM_P1;HPM_P2
2021/12/18 00:01:17;;;;;;;24.23;13.93;;;;;;;12.10;67.99;102764.41;4916271;29;20514;-87
2021/12/18 00:03:44;;;;;;;18.75;12.77;;;;;;;12.44;67.32;102764.00;4916278;29;20028;-88
2021/12/18 00:06:10;;;;;;;18.77;12.52;;;;;;;12.54;66.81;102769.78;4916474;29;20510;-88
2021/12/18 00:08:37;;;;;;;22.80;13.00;;;;;;;12.43;67.02;102778.09;4916151;29;20064;-88
2021/12/18 00:11:03;;;;;;;21.23;13.18;;;;;;;12.30;67.26;102771.56;4915994;29;20056;-88
2021/12/18 00:13:28;;;;;;;18.77;11.95;;;;;;;12.57;66.67;102774.06;4915542;29;20052;-88
2021/12/18 00:15:53;;;;;;;19.58;11.70;;;;;;;12.27;67.42;102772.53;4915984;29;20454;-88
2021/12/18 00:18:20;;;;;;;19.33;12.13;;;;;;;12.36;67.46;102773.09;4916004;29;20044;-87
2021/12/18 00:20:46;;;;;;;21.27;12.77;;;;;;;12.41;66.70;102773.78;4916181;29;20024;-88
2021/12/18 00:23:12;;;;;;;20.15;11.77;;;;;;;12.66;66.29;102765.81;4914298;29;20028;-88
2021/12/18 00:25:37;;;;;;;18.92;12.30;;;;;;;12.53;66.38;102772.47;4915856;29;20035;-87
2021/12/18 00:28:03;;;;;;;21.27;13.25;;;;;;;12.17;67.85;102760.63;4915371;29;20032;-88
2021/12/18 00:30:28;;;;;;;20.10;12.93;;;;;;;12.42;66.41;102764.97;4915864;29;20518;-87
2021/12/18 00:32:54;;;;;;;19.63;12.13;;;;;;;12.43;66.77;102762.28;4918226;29;20027;-87
2021/12/18 00:35:20;;;;;;;20.92;13.32;;;;;;;12.55;66.39;102774.13;4919208;29;20047;-87
2021/12/18 00:37:46;;;;;;;24.58;14.70;;;;;;;12.48;66.57;102775.28;4919177;29;20034;-87
2021/12/18 00:40:19;;;;;;;26.08;15.57;;;;;;;12.13;67.96;102766.94;4918773;29;20083;-87
2021/12/18 00:42:56;;;;;;;17.05;11.70;;;;;;;12.43;67.40;102764.06;4919063;29;20024;-87
2021/12/18 00:45:22;;;;;;;27.30;14.10;;;;;;;12.27;67.56;102771.69;4919139;29;20032;-87
2021/12/18 00:47:47;;;;;;;19.00;13.27;;;;;;;12.22;67.73;102769.22;4919103;29;20043;-87
2021/12/18 00:50:23;;;;;;;19.65;13.55;;;;;;;12.07;68.20;102775.06;4919152;29;20441;-87
2021/12/18 00:52:49;;;;;;;23.88;13.38;;;;;;;11.94;68.87;102771.13;4918724;29;20024;-87
2021/12/18 00:55:16;;;;;;;19.05;13.43;;;;;;;12.42;67.44;102770.22;4918676;29;20407;-87
2021/12/18 00:57:44;;;;;;;16.85;12.32;;;;;;;12.46;67.16;102767.44;4918874;29;20404;-87
2021/12/18 01:00:12;;;;;;;19.40;13.38;;;;;;;11.95;68.47;102772.84;4918495;29;20067;-87
2021/12/18 01:02:40;;;;;;;19.35;13.15;;;;;;;12.27;67.49;102769.91;4918291;29;20120;-87
2021/12/18 01:05:06;;;;;;;19.15;13.25;;;;;;;12.66;66.37;102764.03;4918851;29;20047;-87
2021/12/18 01:07:32;;;;;;;21.00;14.38;;;;;;;12.33;66.95;102762.69;4918229;29;20024;-87
2021/12/18 01:12:43;;;;;;;19.88;13.55;;;;;;;12.47;67.06;102752.47;4918839;29;20034;-87
2021/12/18 01:23:08;;;;;;;16.48;11.00;;;;;;;12.45;66.50;102742.00;4918043;29;20072;-87
2021/12/18 01:25:33;;;;;;;15.93;11.32;;;;;;;12.59;66.33;102740.59;4918637;29;20020;-87
2021/12/18 01:27:59;;;;;;;14.63;11.30;;;;;;;12.80;65.70;102733.63;4917795;29;20064;-87
2021/12/18 01:30:24;;;;;;;15.48;11.32;;;;;;;12.75;65.59;102744.34;4918662;29;20036;-87
2021/12/18 01:32:50;;;;;;;16.67;12.13;;;;;;;12.51;66.73;102754.09;4917316;29;20044;-87
2021/12/18 01:35:16;;;;;;;15.43;11.68;;;;;;;12.42;66.83;102749.16;4917661;29;20046;-87
2021/12/18 01:37:44;;;;;;;18.38;13.35;;;;;;;12.55;66.41;102750.41;4918383;29;20024;-87
2021/12/18 01:40:10;;;;;;;20.65;13.73;;;;;;;12.53;67.07;102751.38;4918611;29;20024;-88
2021/12/18 01:53:22;;;;;;;17.73;12.25;;;;;;;12.47;66.62;102763.03;4917547;29;20052;-87
2021/12/18 01:55:50;;;;;;;15.65;11.68;;;;;;;12.53;66.30;102751.38;4917709;29;20032;-87
2021/12/18 01:58:22;;;;;;;14.93;11.00;;;;;;;12.39;66.98;102751.91;4917943;29;20447;-87
2021/12/18 02:00:50;;;;;;;14.32;11.13;;;;;;;12.25;67.23;102750.66;4917670;29;20028;-87
2021/12/18 02:03:15;;;;;;;13.48;10.52;;;;;;;12.56;66.78;102754.78;4917790;29;20535;-87
2021/12/18 02:05:40;;;;;;;15.30;11.55;;;;;;;12.23;67.44;102757.75;4917610;29;20024;-87
2021/12/18 02:08:06;;;;;;;13.07;10.60;;;;;;;12.55;66.19;102758.31;4917615;29;20055;-87
2021/12/18 02:10:43;;;;;;;15.15;11.45;;;;;;;12.81;65.29;102756.44;4916480;29;20071;-88
2021/12/18 02:13:24;;;;;;;15.00;11.65;;;;;;;12.70;65.88;102760.34;4917401;29;20525;-87
2021/12/18 02:21:22;;;;;;;12.80;10.27;;;;;;;12.74;65.47;102754.94;4917411;29;20039;-87
2021/12/18 02:23:48;;;;;;;14.85;11.65;;;;;;;12.79;65.75;102755.63;4918170;29;20024;-87
2021/12/18 02:26:14;;;;;;;13.15;10.65;;;;;;;12.87;65.89;102750.91;4898582;29;20033;-88
2021/12/18 02:28:43;;;;;;;11.63;10.40;;;;;;;12.74;66.06;102754.94;4899333;29;20024;-88
2021/12/18 02:31:09;;;;;;;16.02;11.32;;;;;;;12.75;66.09;102754.88;4917120;29;20470;-87
2021/12/18 02:33:34;;;;;;;13.20;10.00;;;;;;;13.08;64.64;102754.47;4917335;29;20116;-88
2021/12/18 02:36:02;;;;;;;11.65;10.45;;;;;;;12.88;64.84;102748.22;4917090;29;20044;-87
2021/12/18 02:38:45;;;;;;;12.65;10.40;;;;;;;12.73;65.81;102755.88;4917253;29;20039;-87
2021/12/18 02:43:50;;;;;;;12.18;9.65;;;;;;;12.88;65.25;102748.22;4916931;29;20395;-87
2021/12/18 02:46:22;;;;;;;11.20;9.40;;;;;;;12.89;65.56;102749.94;4917055;29;20423;-87
2021/12/18 02:48:50;;;;;;;11.32;9.00;;;;;;;12.92;65.39;102748.97;4917362;29;20059;-87
2021/12/18 02:51:16;;;;;;;10.75;8.95;;;;;;;13.09;64.63;102753.53;4915727;29;20028;-87
2021/12/18 02:53:45;;;;;;;10.65;9.32;;;;;;;13.02;65.22;102758.19;4916449;29;20034;-87
2021/12/18 02:56:12;;;;;;;11.82;9.43;;;;;;;13.19;63.92;102754.00;4914718;29;20393;-87
2021/12/18 02:58:39;;;;;;;10.98;9.73;;;;;;;13.06;65.10;102745.75;4917096;29;20032;-88
2021/12/18 03:01:07;;;;;;;12.43;9.70;;;;;;;13.13;64.40;102743.72;4916877;29;20031;-87
2021/12/18 03:03:36;;;;;;;13.02;10.18;;;;;;;13.13;64.97;102741.06;4916706;29;20031;-88
2021/12/18 03:06:21;;;;;;;10.82;9.13;;;;;;;13.20;64.73;102729.34;4916751;29;20431;-87
2021/12/18 03:24:54;;;;;;;11.05;8.98;;;;;;;13.04;64.82;102740.53;4916569;29;20083;-88
2021/12/18 03:27:20;;;;;;;13.27;9.68;;;;;;;13.10;65.14;102736.78;4916380;29;20486;-87
2021/12/18 03:29:46;;;;;;;12.73;9.73;;;;;;;13.09;65.48;102743.84;4916461;29;20024;-87
2021/12/18 03:32:12;;;;;;;12.13;9.43;;;;;;;13.15;64.92;102739.22;4916566;29;20028;-88
2021/12/18 03:34:37;;;;;;;13.82;10.45;;;;;;;12.85;65.71;102750.97;4915850;29;20047;-87
2021/12/18 03:37:04;;;;;;;14.63;10.60;;;;;;;12.92;65.89;102741.03;4916068;29;20032;-88
2021/12/18 03:39:30;;;;;;;13.60;10.10;;;;;;;13.20;64.99;102742.53;4916167;29;20024;-87
2021/12/18 03:41:55;;;;;;;13.85;10.65;;;;;;;13.04;65.47;102742.31;4915392;29;20087;-88
2021/12/18 03:44:21;;;;;;;13.88;10.38;;;;;;;13.25;64.67;102732.63;4915628;29;20031;-87
2021/12/18 03:46:47;;;;;;;13.27;10.20;;;;;;;13.26;65.18;102737.84;4916283;29;20212;-86
2021/12/18 03:49:12;;;;;;;14.35;10.27;;;;;;;13.06;66.11;102736.06;4916190;29;20032;-87
2021/12/18 03:51:38;;;;;;;15.43;10.90;;;;;;;12.99;65.16;102723.19;4916120;29;20031;-87
2021/12/18 03:54:03;;;;;;;13.38;10.00;;;;;;;12.85;66.27;102743.06;4916352;29;20531;-87
2021/12/18 03:56:29;;;;;;;15.23;10.45;;;;;;;12.56;67.08;102732.81;4916388;29;20084;-87
2021/12/18 03:58:55;;;;;;;13.98;10.10;;;;;;;12.94;66.66;102733.94;4916479;29;20088;-87
2021/12/18 04:01:20;;;;;;;15.55;11.60;;;;;;;12.83;66.68;102723.81;4914988;29;20070;-87
2021/12/18 04:03:46;;;;;;;15.43;10.55;;;;;;;12.90;66.73;102712.09;4915996;29;20119;-87
2021/12/18 04:06:11;;;;;;;17.08;11.70;;;;;;;13.00;65.80;102717.84;4917199;29;20086;-87
2021/12/18 04:08:37;;;;;;;18.60;12.10;;;;;;;13.16;64.91;102719.84;4919984;29;20032;-87
2021/12/18 04:11:02;;;;;;;17.15;11.95;;;;;;;13.18;65.89;102718.88;4919867;29;20479;-87
2021/12/18 04:13:28;;;;;;;19.55;13.85;;;;;;;12.89;66.22;102718.31;4919750;29;20035;-87
2021/12/18 04:15:53;;;;;;;20.80;14.88;;;;;;;13.09;65.50;102720.13;4919920;29;20398;-87
2021/12/18 04:18:19;;;;;;;16.88;12.85;;;;;;;13.04;66.05;102727.34;4919288;29;20059;-87
2021/12/18 04:20:44;;;;;;;20.52;14.85;;;;;;;12.91;66.06;102720.84;4919031;29;20031;-87
2021/12/18 04:23:09;;;;;;;19.65;13.95;;;;;;;13.18;65.50;102728.56;4919603;29;20043;-87
2021/12/18 04:25:35;;;;;;;18.65;14.05;;;;;;;13.19;64.93;102720.59;4919645;29;20105;-87
2021/12/18 04:28:00;;;;;;;19.35;14.75;;;;;;;12.87;65.27;102727.19;4919658;29;20029;-88
2021/12/18 04:30:26;;;;;;;22.33;14.65;;;;;;;12.99;65.13;102721.41;4919786;29;20032;-88
2021/12/18 04:32:51;;;;;;;17.35;13.82;;;;;;;12.91;65.15;102715.59;4918766;29;20034;-88
2021/12/18 04:35:18;;;;;;;18.15;13.57;;;;;;;12.81;64.57;102724.78;4918819;29;20056;-88
2021/12/18 04:37:43;;;;;;;16.55;13.00;;;;;;;12.77;64.48;102716.16;4919020;29;20028;-87
2021/12/18 04:40:09;;;;;;;19.23;14.57;;;;;;;13.09;63.57;102706.06;4919220;29;20039;-88
2021/12/18 04:42:35;;;;;;;19.42;14.13;;;;;;;12.51;64.43;102717.19;4919369;29;20025;-88
2021/12/18 04:45:00;;;;;;;16.67;13.80;;;;;;;12.91;63.18;102715.59;4919303;29;20028;-87
2021/12/18 04:47:26;;;;;;;18.45;13.55;;;;;;;13.11;62.32;102712.13;4919268;29;20542;-88
2021/12/18 04:49:52;;;;;;;16.73;12.93;;;;;;;12.87;62.96;102712.25;4919063;29;20020;-88
2021/12/18 04:52:17;;;;;;;19.10;13.48;;;;;;;13.01;62.35;102705.50;4918062;29;20043;-88
2021/12/18 04:54:44;;;;;;;14.82;12.95;;;;;;;12.95;62.83;102700.50;4918799;29;20021;-87
2021/12/18 04:57:10;;;;;;;15.73;12.02;;;;;;;13.08;62.29;102712.25;4919041;29;20028;-87
2021/12/18 04:59:42;;;;;;;18.02;13.18;;;;;;;13.00;62.28;102717.84;4919164;29;20035;-87
2021/12/18 05:02:07;;;;;;;;;;;;;;;13.07;62.16;102724.59;4918706;29;20103;-87
2021/12/18 05:04:33;;;;;;;14.23;11.93;;;;;;;12.87;62.89;102714.88;4918673;29;19951;-87
2021/12/18 05:06:58;;;;;;;15.52;11.50;;;;;;;13.13;61.67;102705.03;4918766;29;20035;-87
2021/12/18 05:09:24;;;;;;;14.85;11.48;;;;;;;13.20;61.43;102708.25;4918260;29;20115;-87
2021/12/18 05:11:50;;;;;;;13.32;11.52;;;;;;;12.84;62.15;102706.22;4918805;29;20032;-87
2021/12/18 05:14:16;;;;;;;15.65;13.57;;;;;;;13.12;61.31;102698.03;4918732;29;20024;-88
2021/12/18 05:16:42;;;;;;;17.20;13.32;;;;;;;12.83;62.43;102700.06;4918681;29;20155;-87
2021/12/18 05:19:07;;;;;;;14.15;11.57;;;;;;;12.67;62.79;102701.63;4917896;29;20036;-87
2021/12/18 05:21:33;;;;;;;15.32;11.90;;;;;;;12.86;62.01;102712.28;4918302;29;20446;-87
2021/12/18 05:23:58;;;;;;;16.55;12.30;;;;;;;13.03;61.92;102716.84;4917685;29;20459;-88
2021/12/18 05:26:23;;;;;;;17.38;13.18;;;;;;;13.09;61.63;102708.69;4918420;29;20059;-88
2021/12/18 05:28:49;;;;;;;19.42;14.00;;;;;;;13.13;61.31;102712.06;4918735;29;20028;-87
2021/12/18 05:31:17;;;;;;;21.77;14.85;;;;;;;12.88;62.74;102715.72;4918895;29;20448;-88
2021/12/18 05:33:47;;;;;;;20.75;14.50;;;;;;;13.15;61.85;102715.50;4918289;29;20529;-87
2021/12/18 05:39:15;;;;;;;18.13;14.13;;;;;;;12.76;63.34;102706.53;4917957;29;20050;-88
2021/12/18 05:41:40;;;;;;;19.17;14.68;;;;;;;12.96;62.77;102699.59;4918162;29;20024;-87
2021/12/18 05:44:06;;;;;;;22.80;15.52;;;;;;;12.84;63.39;102708.88;4918246;29;20088;-87
2021/12/18 05:46:33;;;;;;;18.10;14.48;;;;;;;13.03;62.75;102717.75;4918210;29;20447;-87
2021/12/18 05:48:58;;;;;;;25.80;15.15;;;;;;;12.77;63.62;102707.38;4918180;29;20039;-87
2021/12/18 05:51:24;;;;;;;20.83;14.05;;;;;;;12.45;64.50;102696.34;4918161;29;20032;-87
2021/12/18 05:53:49;;;;;;;20.95;14.50;;;;;;;12.79;63.52;102714.31;4917512;29;20020;-87
2021/12/18 05:56:15;;;;;;;21.02;14.75;;;;;;;12.94;62.89;102712.84;4917774;29;20454;-87
2021/12/18 05:58:44;;;;;;;20.55;13.85;;;;;;;13.10;63.02;102708.63;4917959;29;20020;-87
2021/12/18 06:01:11;;;;;;;21.52;14.35;;;;;;;13.10;63.12;102711.25;4918085;29;20024;-87
2021/12/18 06:03:36;;;;;;;22.00;15.48;;;;;;;13.08;63.03;102717.53;4917855;29;20378;-89
2021/12/18 06:06:02;;;;;;;19.25;13.73;;;;;;;12.93;63.32;102711.09;4917788;29;20534;-86
2021/12/18 06:08:31;;;;;;;22.38;15.18;;;;;;;12.86;63.88;102712.28;4917434;29;20041;-87
2021/12/18 06:11:00;;;;;;;26.42;14.90;;;;;;;13.02;63.67;102709.88;4917801;29;20028;-89
2021/12/18 06:13:26;;;;;;;20.45;14.70;;;;;;;12.67;64.77;102720.94;4917745;29;20032;-87
2021/12/18 06:15:51;;;;;;;25.27;14.60;;;;;;;12.91;64.07;102726.13;4917467;29;20067;-86
2021/12/18 06:18:16;;;;;;;20.85;14.48;;;;;;;12.84;63.95;102722.91;4917650;29;20032;-87
2021/12/18 06:20:42;;;;;;;24.05;15.82;;;;;;;12.53;65.24;102714.50;4917495;29;20107;-87
2021/12/18 06:23:07;;;;;;;22.35;15.18;;;;;;;13.09;63.69;102714.84;4917270;29;20036;-87
2021/12/18 06:25:33;;;;;;;21.23;15.10;;;;;;;12.95;64.22;102705.78;4917469;29;20031;-90
2021/12/18 06:27:58;;;;;;;22.02;14.98;;;;;;;12.94;63.97;102714.63;4917486;29;20488;-89
2021/12/18 06:30:23;;;;;;;24.90;14.50;;;;;;;12.99;63.77;102713.47;4917458;29;20343;-89
2021/12/18 06:32:49;;;;;;;22.00;15.75;;;;;;;12.88;64.58;102718.38;4917341;29;20028;-88
2021/12/18 06:35:14;;;;;;;19.50;14.63;;;;;;;12.98;64.19;102717.06;4917267;29;20039;-87
2021/12/18 06:37:40;;;;;;;20.98;14.70;;;;;;;12.85;64.90;102729.03;4916409;29;20031;-86
2021/12/18 06:40:06;;;;;;;21.50;15.07;;;;;;;12.82;65.19;102724.75;4917253;29;20056;-87
2021/12/18 06:42:31;;;;;;;21.98;15.38;;;;;;;13.10;63.97;102724.44;4917115;29;20557;-86
2021/12/18 06:44:57;;;;;;;23.65;15.40;;;;;;;12.63;65.71;102721.97;4916967;29;20035;-86
2021/12/18 06:47:22;;;;;;;19.80;13.82;;;;;;;13.06;64.65;102730.78;4917280;29;20031;-89
2021/12/18 06:49:47;;;;;;;28.25;15.65;;;;;;;12.81;65.31;102735.34;4919562;29;20471;-88
2021/12/18 06:52:13;;;;;;;24.15;15.25;;;;;;;13.00;64.42;102730.19;4905017;29;20036;-89
2021/12/18 06:54:38;;;;;;;21.90;15.27;;;;;;;12.93;65.20;102741.91;4916849;29;20498;-89
2021/12/18 06:57:04;;;;;;;21.40;14.48;;;;;;;12.90;65.25;102745.53;4916767;29;20032;-88
2021/12/18 06:59:29;;;;;;;27.08;16.55;;;;;;;12.96;64.86;102737.38;4916609;29;20501;-89
2021/12/18 07:01:55;;;;;;;24.52;15.40;;;;;;;13.14;64.50;102748.94;4916525;29;20028;-89
2021/12/18 07:04:23;;;;;;;21.95;14.85;;;;;;;13.00;64.82;102733.66;4915942;29;20034;-89
2021/12/18 07:06:48;;;;;;;22.23;14.65;;;;;;;12.84;65.70;102740.50;4916473;29;20490;-88
2021/12/18 07:09:14;;;;;;;22.20;15.10;;;;;;;12.92;65.69;102743.69;4918459;29;20036;-88
2021/12/18 07:11:39;;;;;;;24.88;15.35;;;;;;;12.93;65.64;102749.81;4935649;29;20032;-88
2021/12/18 07:14:05;;;;;;;29.10;16.10;;;;;;;13.16;65.03;102748.88;4924508;29;20550;-89
2021/12/18 07:16:30;;;;;;;27.65;14.68;;;;;;;12.90;65.39;102756.06;4909526;29;20035;-89
2021/12/18 07:18:55;;;;;;;22.95;15.38;;;;;;;13.29;64.23;102747.44;4915538;29;20043;-89
2021/12/18 07:21:21;;;;;;;22.33;15.10;;;;;;;13.41;64.24;102756.66;4910639;29;20028;-88
2021/12/18 07:23:47;;;;;;;23.58;14.73;;;;;;;13.35;64.40;102755.13;4915916;29;20495;-89
2021/12/18 07:26:13;;;;;;;25.48;14.90;;;;;;;13.14;64.46;102748.09;4916890;29;20031;-89
2021/12/18 07:28:39;;;;;;;21.52;13.77;;;;;;;13.20;64.79;102750.47;4933037;29;20035;-88
2021/12/18 07:31:05;;;;;;;24.08;14.43;;;;;;;13.09;65.60;102750.88;4914652;29;20439;-89
2021/12/18 07:33:30;;;;;;;23.27;15.40;;;;;;;13.20;65.06;102740.75;4914080;29;20125;-89
2021/12/18 07:35:55;;;;;;;22.00;15.30;;;;;;;13.31;64.73;102750.91;4914326;29;20238;-89
2021/12/18 07:38:21;;;;;;;21.92;14.15;;;;;;;13.25;65.09;102757.25;4914931;29;20037;-89
2021/12/18 07:40:46;;;;;;;24.63;13.32;;;;;;;13.23;64.84;102753.84;4916471;29;20028;-88
2021/12/18 07:43:12;;;;;;;25.27;14.75;;;;;;;13.03;65.50;102744.09;4920724;29;20020;-88
2021/12/18 07:45:37;;;;;;;23.88;14.70;;;;;;;13.26;64.74;102748.41;4921327;29;20474;-89
2021/12/18 07:48:03;;;;;;;27.20;15.63;;;;;;;13.06;65.59;102748.38;4921314;29;20387;-89
2021/12/18 07:50:28;;;;;;;23.90;14.73;;;;;;;13.05;65.47;102744.91;4920793;29;20110;-88
2021/12/18 07:52:54;;;;;;;24.10;15.32;;;;;;;13.05;65.77;102741.38;4919857;29;20043;-88
2021/12/18 07:55:20;;;;;;;21.83;13.43;;;;;;;13.31;65.03;102745.63;4919313;29;20482;-88
2021/12/18 07:57:45;;;;;;;21.80;14.50;;;;;;;12.96;65.59;102740.00;4919376;29;20024;-87
2021/12/18 08:00:13;;;;;;;21.95;14.25;;;;;;;12.86;66.03;102743.94;4918977;29;20028;-88
2021/12/18 08:02:39;;;;;;;19.02;13.38;;;;;;;12.99;66.44;102750.41;4920919;29;20032;-87
2021/12/18 08:05:06;;;;;;;18.65;13.05;;;;;;;12.68;66.11;102741.09;4919369;29;20438;-89
2021/12/18 08:07:31;;;;;;;21.73;14.07;;;;;;;13.10;64.97;102753.47;4922001;29;20028;-88
2021/12/18 08:09:57;;;;;;;22.75;14.73;;;;;;;12.69;66.99;102756.00;4927584;29;20783;-88
2021/12/18 08:12:22;;;;;;;21.77;14.98;;;;;;;12.81;66.02;102759.06;4915115;29;20032;-87
2021/12/18 08:14:47;;;;;;;22.38;14.63;;;;;;;13.07;65.31;102758.88;4915579;29;20068;-89
2021/12/18 08:17:13;;;;;;;25.83;15.13;;;;;;;13.21;65.17;102760.06;4912399;29;20386;-88
2021/12/18 08:19:38;;;;;;;23.42;14.98;;;;;;;12.99;66.00;102757.47;4903381;29;20028;-87
2021/12/18 08:22:04;;;;;;;22.52;14.15;;;;;;;13.13;65.90;102751.63;4911541;29;20127;-87
2021/12/18 08:24:29;;;;;;;22.90;14.48;;;;;;;12.90;66.34;102749.00;4907995;29;20336;-87
2021/12/18 08:26:55;;;;;;;16.98;12.77;;;;;;;12.96;65.96;102753.19;4907945;29;20040;-89
2021/12/18 08:29:21;;;;;;;21.58;14.07;;;;;;;12.90;65.79;102750.81;4907478;29;20055;-88
2021/12/18 08:31:47;;;;;;;21.27;14.77;;;;;;;12.57;67.57;102745.94;4910965;29;20115;-88
2021/12/18 08:34:12;;;;;;;18.48;13.65;;;;;;;13.16;65.43;102756.78;4904614;29;20236;-87
2021/12/18 08:36:38;;;;;;;19.83;12.85;;;;;;;12.88;66.61;102747.38;4903403;29;20224;-87
2021/12/18 08:39:03;;;;;;;19.10;13.63;;;;;;;12.86;66.08;102757.13;4904023;29;20084;-88
2021/12/18 08:41:29;;;;;;;20.15;13.35;;;;;;;12.90;65.93;102750.81;4904713;29;20032;-88
2021/12/18 08:43:55;;;;;;;18.85;13.20;;;;;;;13.29;64.98;102758.00;4903118;29;20368;-88
2021/12/18 08:46:20;;;;;;;19.08;13.02;;;;;;;12.95;65.85;102754.09;4903517;29;20100;-88
2021/12/18 08:48:46;;;;;;;19.15;12.68;;;;;;;12.54;66.55;102756.63;4907955;29;20040;-87
2021/12/18 08:51:11;;;;;;;21.48;13.60;;;;;;;12.43;67.69;102761.44;4920840;29;20032;-88
2021/12/18 08:53:37;;;;;;;16.83;12.38;;;;;;;12.26;68.05;102762.06;4916853;29;20112;-89
2021/12/18 08:56:02;;;;;;;16.90;11.82;;;;;;;12.62;67.18;102751.03;4918005;29;20032;-87
2021/12/18 08:58:28;;;;;;;19.48;12.40;;;;;;;12.56;66.52;102753.88;4918798;29;20055;-88
2021/12/18 09:00:53;;;;;;;18.52;13.02;;;;;;;12.47;67.43;102757.75;4918472;29;20036;-88
2021/12/18 09:03:19;;;;;;;15.68;11.52;;;;;;;12.81;66.37;102761.69;4918531;29;20476;-88
2021/12/18 09:05:44;;;;;;;15.85;11.52;;;;;;;13.01;65.04;102766.16;4918072;29;20483;-88
2021/12/18 09:08:10;;;;;;;16.60;12.43;;;;;;;12.98;65.02;102763.69;4918607;29;20104;-88
2021/12/18 09:10:35;;;;;;;16.33;12.07;;;;;;;13.16;64.73;102767.34;4918511;29;20083;-89
2021/12/18 09:13:01;;;;;;;16.13;11.18;;;;;;;12.60;66.28;102763.41;4918654;29;20024;-88
2021/12/18 09:15:27;;;;;;;15.85;11.82;;;;;;;13.18;64.74;102762.84;4917299;29;20045;-89
2021/12/18 09:17:53;;;;;;;17.08;11.98;;;;;;;13.23;64.85;102771.41;4917511;29;20111;-89
2021/12/18 09:20:18;;;;;;;16.55;11.93;;;;;;;13.13;65.04;102767.44;4917669;29;20111;-89
2021/12/18 09:22:44;;;;;;;17.20;11.95;;;;;;;12.94;65.20;102762.94;4918157;29;20077;-89
2021/12/18 09:25:10;;;;;;;17.45;12.40;;;;;;;12.78;66.25;102762.69;4918463;29;20111;-88
2021/12/18 09:27:36;;;;;;;17.60;12.65;;;;;;;12.88;65.40;102752.63;4916402;29;20452;-88
2021/12/18 09:30:08;;;;;;;17.50;12.38;;;;;;;13.23;64.35;102763.50;4917346;29;20032;-89
2021/12/18 09:32:35;;;;;;;16.27;11.98;;;;;;;13.13;65.06;102757.78;4916251;29;20043;-89
2021/12/18 09:35:01;;;;;;;16.95;11.95;;;;;;;13.19;65.03;102767.19;4916952;29;20031;-89
2021/12/18 09:37:26;;;;;;;15.77;12.13;;;;;;;13.38;64.33;102760.25;4917470;29;20514;-87
2021/12/18 09:39:52;;;;;;;15.27;11.93;;;;;;;13.12;65.29;102766.59;4917685;29;20028;-87
2021/12/18 09:42:17;;;;;;;14.65;11.52;;;;;;;13.13;65.30;102768.34;4914890;29;20036;-86
2021/12/18 09:44:49;;;;;;;19.75;11.10;;;;;;;13.05;65.33;102765.13;4917739;29;20079;-86
2021/12/18 09:47:14;;;;;;;14.27;11.35;;;;;;;12.87;65.87;102774.63;4917899;29;20028;-86
2021/12/18 09:49:40;;;;;;;17.02;12.02;;;;;;;13.20;65.13;102774.19;4916062;29;20096;-87
2021/12/18 09:52:05;;;;;;;16.77;13.00;;;;;;;13.47;63.96;102777.50;4917862;29;20079;-86
2021/12/18 09:54:31;;;;;;;18.30;13.50;;;;;;;13.48;63.60;102779.22;4918727;29;20060;-87
2021/12/18 09:56:57;;;;;;;17.55;12.93;;;;;;;13.43;63.93;102784.69;4915895;29;20032;-86
2021/12/18 09:59:22;;;;;;;20.38;13.38;;;;;;;13.51;63.86;102789.66;4915045;29;20042;-87
2021/12/18 10:01:48;;;;;;;17.33;13.48;;;;;;;13.63;63.25;102783.00;4914282;29;20039;-86
2021/12/18 10:04:28;;;;;;;17.00;12.98;;;;;;;13.67;63.87;102784.56;4917218;29;20055;-87
2021/12/18 10:06:53;;;;;;;16.80;13.02;;;;;;;13.67;63.08;102787.22;4913926;29;20068;-87
2021/12/18 10:09:22;;;;;;;17.73;12.43;;;;;;;13.26;64.52;102784.50;4916380;29;20107;-90
2021/12/18 10:11:57;;;;;;;19.88;14.43;;;;;;;13.31;64.33;102787.84;4920340;29;20042;-89
2021/12/18 10:14:36;;;;;;;17.27;12.82;;;;;;;12.94;65.46;102784.03;4921803;29;20032;-87
2021/12/18 10:17:02;;;;;;;19.40;12.73;;;;;;;13.45;63.92;102793.41;4915688;29;20040;-87
2021/12/18 10:19:35;;;;;;;17.75;13.82;;;;;;;13.51;63.34;102789.66;4916209;29;20507;-87
2021/12/18 10:22:03;;;;;;;18.83;14.32;;;;;;;13.15;64.74;102791.97;4916119;29;20370;-88
2021/12/18 10:24:31;;;;;;;20.45;14.48;;;;;;;13.48;63.78;102789.75;4908914;29;20031;-88
2021/12/18 10:26:56;;;;;;;22.80;15.00;;;;;;;12.96;65.05;102795.38;4915239;29;20036;-87
2021/12/18 10:29:42;;;;;;;21.42;13.55;;;;;;;13.48;63.73;102798.53;4917991;29;20079;-88
2021/12/18 10:32:16;;;;;;;18.35;14.07;;;;;;;13.29;64.07;102793.19;4914459;29;20082;-86
2021/12/18 10:34:49;;;;;;;21.40;14.50;;;;;;;13.47;63.83;102788.06;4915706;29;20032;-87
2021/12/18 10:37:24;;;;;;;21.45;14.35;;;;;;;13.84;63.19;102786.47;4917299;29;20144;-87
2021/12/18 10:40:10;;;;;;;23.63;16.13;;;;;;;13.97;62.74;102784.16;4911994;29;20510;-88
2021/12/18 10:42:45;;;;;;;21.08;15.38;;;;;;;13.95;62.24;102781.56;4910951;29;20043;-88
2021/12/18 10:45:17;;;;;;;20.58;14.95;;;;;;;13.89;62.92;102787.97;4914271;29;20039;-87
2021/12/18 10:48:04;;;;;;;21.25;15.00;;;;;;;13.84;62.09;102789.97;4911176;29;20036;-86
2021/12/18 10:50:38;;;;;;;22.55;14.95;;;;;;;14.06;62.16;102791.69;4914615;29;20040;-87
2021/12/18 10:53:19;;;;;;;20.15;15.35;;;;;;;14.17;61.65;102793.81;4911015;29;20036;-88
2021/12/18 10:55:56;;;;;;;20.17;14.88;;;;;;;14.12;61.88;102801.09;4915249;29;20487;-87
2021/12/18 10:58:27;;;;;;;20.77;14.60;;;;;;;14.26;61.83;102791.63;4915159;29;20066;-89
2021/12/18 11:00:55;;;;;;;21.08;16.08;;;;;;;14.23;61.21;102797.03;4913595;29;20111;-87
2021/12/18 11:03:22;;;;;;;20.65;15.48;;;;;;;14.25;61.60;102800.47;4918012;29;20031;-88
2021/12/18 11:06:17;;;;;;;22.08;16.00;;;;;;;14.24;61.33;102804.06;4915310;29;20028;-87
2021/12/18 11:09:10;;;;;;;21.77;15.38;;;;;;;14.08;61.62;102800.41;4913426;29;20081;-89
2021/12/18 11:14:14;;;;;;;21.08;15.90;;;;;;;14.07;61.60;102790.72;4914303;29;20092;-94
2021/12/18 11:16:43;;;;;;;22.45;17.38;;;;;;;14.13;61.20;102792.25;4915615;29;20028;-92
2021/12/18 11:19:13;;;;;;;24.95;16.85;;;;;;;14.20;61.27;102796.34;4916709;29;20028;-90
2021/12/18 11:21:44;;;;;;;22.15;16.60;;;;;;;14.33;61.09;102783.41;4916836;29;20103;-91
2021/12/18 11:24:11;;;;;;;23.33;16.60;;;;;;;14.53;60.09;102785.13;4916273;29;20044;-88
2021/12/18 11:26:45;;;;;;;21.80;16.00;;;;;;;14.41;60.81;102781.28;4914994;29;20040;-88
2021/12/18 11:29:44;;;;;;;24.48;17.48;;;;;;;14.27;61.14;102785.41;4916034;29;20160;-88
2021/12/18 11:32:12;;;;;;;23.75;16.77;;;;;;;14.50;60.19;102780.84;4913115;29;20481;-88
2021/12/18 11:34:38;;;;;;;20.30;16.23;;;;;;;14.20;60.55;102783.97;4914818;29;20028;-87
2021/12/18 11:37:09;;;;;;;23.42;16.92;;;;;;;14.17;60.40;102781.47;4915079;29;20028;-89
2021/12/18 11:39:36;;;;;;;20.80;15.88;;;;;;;14.44;59.89;102776.72;4918321;29;20099;-87
2021/12/18 11:42:03;;;;;;;21.23;16.60;;;;;;;14.34;60.12;102779.84;4911392;29;20127;-88
2021/12/18 11:44:59;;;;;;;22.67;16.55;;;;;;;14.56;60.19;102787.66;4916441;29;20039;-88
2021/12/18 11:47:33;;;;;;;18.63;15.00;;;;;;;14.67;59.84;102786.25;4916481;29;20044;-89
2021/12/18 11:50:21;;;;;;;21.33;16.48;;;;;;;14.70;60.04;102782.59;4919217;29;20478;-91
2021/12/18 11:53:02;;;;;;;20.92;15.27;;;;;;;14.53;59.60;102787.78;4912512;29;20052;-88
2021/12/18 11:55:33;;;;;;;18.67;15.30;;;;;;;14.76;59.57;102781.44;4915289;29;20099;-88
2021/12/18 11:58:11;;;;;;;20.67;15.05;;;;;;;14.80;58.80;102783.84;4915819;29;20419;-89
2021/12/18 12:00:51;;;;;;;19.58;14.70;;;;;;;14.95;58.45;102782.28;4921257;29;20027;-90
2021/12/18 12:03:40;;;;;;;19.08;15.05;;;;;;;15.01;58.81;102767.88;4916316;29;20052;-90